Latest Weather Observations for Mardie

IDW60801

Issued at 11:34 am WST Wednesday 22 February 2017 (issued every 30 minutes, with the page automatically refreshed every 10 minutes)

About weather observations | Map of weather stations | Latest weather observations for WA | Other Formats
Station Details ID: 005008 Name: MARDIE Lat: -21.19 Lon: 115.98 Height: 11.0 m
Data from the previous 72 hours. | See also: Recent months at Mardie
Date/Time
WST
Temp
°C
App
Temp
°C
Dew
Point
°C
Rel
Hum
%
Delta-T
°C
Wind Press
QNH
hPa
Press
MSL
hPa
Rain since
9am
mm
Dir  Spd
km/h
Gust
km/h
Spd
kts
Gust
kts
22/11:30am 36.9 38.2 19.4 36 11.6 ESE 11 17 6 9 1010.6 1010.5 0.0
22/11:00am 36.0 38.7 20.3 40 10.5 E 6 13 3 7 1010.9 1010.8 0.0
22/10:30am 35.9 37.2 20.2 40 10.5 ESE 13 20 7 11 1011.3 1011.2 0.0
22/10:00am 35.0 37.2 20.5 42 9.7 SE 9 15 5 8 1011.5 1011.4 0.0
22/09:30am 33.6 35.8 21.1 48 8.4 SSE 11 17 6 9 1011.5 1011.4 0.0
22/09:00am 32.5 35.6 21.4 52 7.5 SSE 7 13 4 7 1011.3 1011.2 0.0
22/08:30am 31.3 35.4 22.3 58 6.1 E 4 7 2 4 1011.5 1011.4 0.0
22/08:00am 30.1 33.7 22.0 62 5.5 ESE 6 9 3 5 1011.4 1011.3 0.0
22/07:30am 28.8 31.5 21.3 64 5.0 S 9 11 5 6 1011.0 1010.9 0.0
22/07:00am 28.3 30.6 21.3 65 4.7 S 11 17 6 9 1010.5 1010.4 0.0
22/06:30am 28.0 30.3 21.3 67 4.5 SSW 11 15 6 8 1010.3 1010.2 0.0
22/06:00am 28.1 30.0 21.4 67 4.5 SSW 13 15 7 8 1010.0 1009.9 0.0
22/05:30am 28.2 30.3 21.7 68 4.4 SSW 13 17 7 9 1009.8 1009.7 0.0
22/05:00am 28.4 30.9 21.7 67 4.5 SSW 11 15 6 8 1009.6 1009.5 0.0
22/04:30am 28.9 31.8 21.7 65 4.8 SSW 9 13 5 7 1009.6 1009.5 0.0
22/04:00am 29.5 32.0 21.7 63 5.3 SSW 11 13 6 7 1009.3 1009.2 0.0
22/03:30am 29.6 32.3 22.1 64 5.1 SSW 11 15 6 8 1009.0 1008.9 0.0
22/03:00am 29.5 32.2 22.2 65 4.9 SSW 11 15 6 8 1008.8 1008.7 0.0
22/02:30am 29.9 33.1 22.3 63 5.2 SSW 9 15 5 8 1008.9 1008.8 0.0
22/02:00am 30.1 33.0 22.5 63 5.2 SSW 11 15 6 8 1009.1 1009.0 0.0
22/01:30am 29.3 32.9 23.0 69 4.3 SSW 9 11 5 6 1009.1 1009.0 0.0
22/01:00am 29.6 33.2 23.1 68 4.5 SSW 9 9 5 5 1009.3 1009.2 0.0
22/12:30am 29.6 33.4 22.8 67 4.6 SSW 7 9 4 5 1009.3 1009.2 0.0
22/12:00am 30.0 33.4 22.7 65 5.0 SSW 9 11 5 6 1009.4 1009.3 0.0
 
Date/Time
WST
Temp
°C
App
Temp
°C
Dew
Point
°C
Rel
Hum
%
Delta-T
°C
Wind Press
QNH
hPa
Press
MSL
hPa
Rain since
9am
mm
Dir  Spd
km/h
Gust
km/h
Spd
kts
Gust
kts
21/11:30pm 30.4 33.6 23.1 65 5.0 SW 11 13 6 7 1009.4 1009.3 0.0
21/11:00pm 30.9 34.7 23.5 64 5.1 SW 9 11 5 6 1009.4 1009.3 0.0
21/10:30pm 31.6 35.9 24.2 65 5.2 SW 9 13 5 7 1009.4 1009.3 0.0
21/10:00pm 31.7 37.5 26.0 72 4.1 WSW 7 11 4 6 1009.4 1009.3 0.0
21/09:30pm 32.1 37.0 25.9 70 4.4 WSW 11 17 6 9 1009.3 1009.2 0.0
21/09:00pm 32.3 36.9 25.9 69 4.6 WSW 13 17 7 9 1009.0 1008.9 0.0
21/08:30pm 32.3 36.6 26.6 72 4.1 WSW 17 22 9 12 1008.9 1008.8 0.0
21/08:00pm 32.1 36.4 26.6 72 4.0 W 17 22 9 12 1008.5 1008.4 0.0
21/07:30pm 32.3 35.7 26.1 70 4.4 W 20 28 11 15 1008.3 1008.2 0.0
21/07:00pm 32.6 35.6 26.2 69 4.6 W 22 30 12 16 1007.7 1007.6 0.0
21/06:30pm 33.1 35.2 25.9 66 5.1 W 26 33 14 18 1007.3 1007.2 0.0
21/06:00pm 34.2 35.5 24.7 57 6.7 W 26 35 14 19 1006.9 1006.8 0.0
21/05:30pm 34.3 35.1 24.5 56 6.9 W 28 41 15 22 1006.6 1006.5 0.0
21/05:00pm 34.4 35.3 24.6 56 6.9 WNW 28 41 15 22 1006.5 1006.4 0.0
21/04:30pm 35.5 35.5 23.1 48 8.6 WNW 28 37 15 20 1006.3 1006.2 0.0
21/04:00pm 36.8 36.9 22.5 43 9.9 WNW 26 33 14 18 1006.6 1006.5 0.0
21/03:30pm 35.9 38.6 22.8 46 9.1 WNW 13 20 7 11 1006.9 1006.8 0.0
21/03:00pm 37.7 38.0 22.2 40 10.7 WNW 24 33 13 18 1006.9 1006.8 0.0
21/02:30pm 38.0 38.0 21.6 38 11.2 WNW 24 32 13 17 1007.1 1007.0 0.0
21/02:00pm 37.4 37.9 22.7 42 10.2 WNW 24 35 13 19 1007.3 1007.2 0.0
21/01:30pm 39.0 40.1 17.2 28 14.2 SSW 7 13 4 7 1007.6 1007.5 0.0
21/01:00pm 38.4 39.8 17.7 29 13.5 SW 7 19 4 10 1008.1 1008.0 0.0
21/12:30pm 38.6 41.3 19.4 32 12.8 S 4 13 2 7 1008.4 1008.3 0.0
21/12:00pm 37.7 39.9 19.1 33 12.4 S 6 11 3 6 1008.8 1008.7 0.0
21/11:30am 37.6 39.5 19.0 33 12.3 S 7 15 4 8 1009.1 1009.0 0.0
21/11:00am 36.8 39.4 20.1 37 11.2 SSW 6 15 3 8 1009.6 1009.5 0.0
21/10:30am 35.6 38.3 20.7 41 10.0 S 7 13 4 7 1010.0 1009.9 0.0
21/10:00am 34.8 38.3 22.2 48 8.6 S 7 15 4 8 1010.1 1010.0 0.0
21/09:30am 33.3 37.2 23.0 54 7.1 S 7 13 4 7 1010.4 1010.3 0.0
21/09:00am 32.0 35.7 23.3 60 6.0 SSW 9 13 5 7 1010.4 1010.3 -
21/08:30am 30.9 35.7 24.5 68 4.5 S 7 9 4 5 1010.2 1010.1 -
21/08:00am 30.0 35.2 25.1 75 3.5 SSW 7 11 4 6 1010.2 1010.1 -
21/07:30am 28.9 34.2 25.3 81 2.5 SW 7 11 4 6 1010.0 1009.9 -
21/07:00am 27.6 34.7 27.6 100 0.0 SSW 6 7 3 4 1009.7 1009.6 -
21/06:30am 26.5 33.5 26.5 100 0.0 SSW 2 6 1 3 1009.4 1009.3 -
21/06:00am 26.7 34.3 26.7 100 0.0 CALM 0 0 0 0 1009.2 1009.1 -
21/05:30am 26.8 33.7 26.8 100 0.0 WSW 4 4 2 2 1009.1 1009.0 -
21/05:00am 26.9 34.6 26.9 100 0.0 CALM 0 0 0 0 1008.8 1008.7 -
21/04:30am 27.0 34.4 27.0 100 0.0 WSW 2 4 1 2 1008.7 1008.6 -
21/04:00am 27.4 34.1 27.4 100 0.0 WSW 7 7 4 4 1008.6 1008.5 -
21/03:30am 27.7 34.6 27.7 100 0.0 WSW 7 7 4 4 1008.6 1008.5 -
21/03:00am 28.1 35.3 28.1 100 0.0 WSW 7 9 4 5 1008.5 1008.4 -
21/02:30am 28.1 35.5 28.1 100 0.0 W 6 7 3 4 1008.6 1008.5 -
21/02:00am 28.1 36.3 28.1 100 0.0 W 2 6 1 3 1008.7 1008.6 -
21/01:30am 28.4 37.2 28.4 100 0.0 CALM 0 0 0 0 1008.8 1008.7 -
21/01:00am 28.7 37.7 28.7 100 0.0 CALM 0 0 0 0 1009.0 1008.9 -
21/12:30am 28.6 37.5 28.6 100 0.0 CALM 0 0 0 0 1009.3 1009.2 -
21/12:00am 28.5 37.3 28.5 100 0.0 CALM 0 0 0 0 1009.4 1009.3 -
 
Date/Time
WST
Temp
°C
App
Temp
°C
Dew
Point
°C
Rel
Hum
%
Delta-T
°C
Wind Press
QNH
hPa
Press
MSL
hPa
Rain since
9am
mm
Dir  Spd
km/h
Gust
km/h
Spd
kts
Gust
kts
20/11:30pm 28.5 37.0 28.5 100 0.0 WSW 2 4 1 2 1009.5 1009.4 -
20/11:00pm 29.1 37.3 28.2 95 0.7 WSW 2 4 1 2 1009.6 1009.5 -
20/10:30pm 29.0 36.4 28.1 95 0.7 WSW 6 9 3 5 1009.7 1009.6 -
20/10:00pm 29.1 36.4 28.0 94 0.8 WSW 6 7 3 4 1009.7 1009.6 -
20/09:30pm 29.3 35.9 27.3 89 1.4 W 7 13 4 7 1009.5 1009.4 -
20/09:00pm 29.5 36.1 27.7 90 1.3 W 9 15 5 8 1009.4 1009.3 -
20/08:30pm 29.8 35.4 27.4 87 1.7 W 13 17 7 9 1009.1 1009.0 -
20/08:00pm 30.0 36.0 27.4 86 1.9 W 11 15 6 8 1009.0 1008.9 -
20/07:30pm 30.1 36.1 27.5 86 1.9 WNW 11 15 6 8 1008.4 1008.3 -
20/07:00pm 30.7 37.1 27.5 83 2.3 WNW 9 15 5 8 1008.1 1008.0 0.0
20/06:30pm 31.6 36.7 26.2 73 3.9 NW 11 17 6 9 1007.6 1007.5 0.0
20/06:00pm 32.8 36.2 24.0 60 6.2 NNW 13 20 7 11 1007.4 1007.3 0.0
20/05:30pm 33.3 35.7 23.0 54 7.1 NNW 15 20 8 11 1007.1 1007.0 0.0
20/05:00pm 34.0 36.1 23.1 53 7.6 NNW 17 24 9 13 1006.7 1006.6 0.0
20/04:30pm 34.3 37.1 23.0 51 7.8 NNW 13 20 7 11 1006.7 1006.6 0.0
20/04:00pm 35.0 36.9 22.0 46 8.9 NNW 15 22 8 12 1006.6 1006.5 0.0
20/03:30pm 35.2 36.4 21.5 45 9.3 NNW 17 24 9 13 1006.8 1006.7 0.0
20/03:00pm 35.6 37.6 22.2 46 9.2 N 15 20 8 11 1006.8 1006.7 0.0
20/02:30pm 35.6 38.0 22.9 48 8.8 N 15 22 8 12 1006.9 1006.8 0.0
20/02:00pm 35.5 38.0 23.1 48 8.6 N 15 24 8 13 1007.0 1006.9 0.0
20/01:30pm 35.1 38.1 24.7 55 7.4 NNW 17 24 9 13 1007.2 1007.1 0.0
20/01:00pm 35.3 38.5 24.9 55 7.4 NNW 17 24 9 13 1007.6 1007.5 0.0
20/12:30pm 35.4 39.0 25.0 55 7.4 NNW 15 20 8 11 1007.9 1007.8 0.0
20/12:00pm 36.5 40.1 25.0 51 8.2 N 15 24 8 13 1008.1 1008.0 0.0
20/11:30am 37.0 38.4 20.3 37 11.2 NE 13 20 7 11 1008.3 1008.2 0.0
20/11:00am 36.8 37.7 20.1 37 11.2 NE 15 28 8 15 1008.6 1008.5 0.0
20/10:30am 36.5 37.3 19.9 38 11.1 ENE 15 24 8 13 1008.9 1008.8 0.0
20/10:00am 35.0 36.9 22.0 46 8.9 ENE 15 19 8 10 1009.2 1009.1 0.0
20/09:30am 33.6 35.9 22.1 51 7.9 E 13 19 7 10 1009.5 1009.4 0.0
20/09:00am 32.5 36.8 23.7 59 6.1 SE 7 15 4 8 1009.5 1009.4 0.0
20/08:30am 30.7 35.3 24.8 71 4.1 SSE 9 13 5 7 1009.6 1009.5 0.0
20/08:00am 29.2 33.8 25.4 80 2.7 S 11 15 6 8 1009.6 1009.5 0.0
20/07:30am 28.0 33.8 26.6 92 1.0 S 9 11 5 6 1009.8 1009.7 0.0
20/07:00am 27.1 33.8 27.1 100 0.0 SSW 6 9 3 5 1009.7 1009.6 0.0
20/06:30am 26.1 31.9 26.1 100 0.0 SSW 7 9 4 5 1009.4 1009.3 0.0
20/06:00am 26.3 32.3 26.3 100 0.0 SSW 7 9 4 5 1009.3 1009.2 0.0
20/05:30am 26.8 32.7 26.8 100 0.0 SSW 9 13 5 7 1009.1 1009.0 0.0
20/05:00am 27.2 34.0 27.2 100 0.0 WSW 6 7 3 4 1009.0 1008.9 0.0
20/04:30am 27.2 33.8 27.2 100 0.0 WSW 7 9 4 5 1008.8 1008.7 0.0
20/04:00am 27.6 34.7 27.6 100 0.0 WSW 6 7 3 4 1008.9 1008.8 0.0
20/03:30am 27.7 34.6 27.7 100 0.0 WSW 7 9 4 5 1009.0 1008.9 0.0
20/03:00am 27.8 34.4 27.8 100 0.0 SW 9 13 5 7 1009.0 1008.9 0.0
20/02:30am 27.8 34.8 27.8 100 0.0 WSW 7 9 4 5 1009.0 1008.9 0.0
20/02:00am 27.8 34.8 27.8 100 0.0 WSW 7 9 4 5 1009.1 1009.0 0.0
20/01:30am 28.0 35.7 28.0 100 0.0 WSW 4 6 2 3 1009.1 1009.0 0.0
20/01:00am 28.1 35.9 28.1 100 0.0 WSW 4 6 2 3 1009.5 1009.4 0.0
20/12:30am 28.1 35.5 28.1 100 0.0 SW 6 7 3 4 1009.8 1009.7 0.0
20/12:00am 28.4 36.0 28.4 100 0.0 SW 6 9 3 5 1009.9 1009.8 0.0
 
Date/Time
WST
Temp
°C
App
Temp
°C
Dew
Point
°C
Rel
Hum
%
Delta-T
°C
Wind Press
QNH
hPa
Press
MSL
hPa
Rain since
9am
mm
Dir  Spd
km/h
Gust
km/h
Spd
kts
Gust
kts
19/11:30pm 28.6 36.2 28.6 100 0.0 WSW 7 9 4 5 1010.1 1010.0 0.0
19/11:00pm 28.6 36.2 28.6 100 0.0 SW 7 9 4 5 1010.4 1010.3 0.0
19/10:30pm 28.7 36.0 28.7 100 0.0 SSW 9 11 5 6 1010.3 1010.2 0.0
19/10:00pm 28.8 36.7 28.8 100 0.0 W 6 7 3 4 1010.2 1010.1 0.0
19/09:30pm 29.1 38.0 29.1 100 0.0 W 2 4 1 2 1009.8 1009.7 0.0
19/09:00pm 29.2 37.3 29.0 99 0.1 W 6 7 3 4 1009.6 1009.5 0.0
19/08:30pm 29.4 37.2 28.9 97 0.4 W 7 11 4 6 1009.4 1009.3 0.0
19/08:00pm 29.6 37.3 28.7 95 0.7 WSW 7 9 4 5 1009.3 1009.2 0.0
19/07:30pm 29.9 36.8 26.9 84 2.2 WNW 4 7 2 4 1009.1 1009.0 0.0
19/07:00pm 30.4 35.5 25.0 73 3.8 WNW 7 9 4 5 1008.7 1008.6 0.0
19/06:30pm 31.2 36.0 25.1 70 4.3 NW 9 15 5 8 1008.4 1008.3 0.0
19/06:00pm 31.8 36.5 24.9 67 4.9 WNW 9 13 5 7 1008.3 1008.2 0.0
19/05:30pm 31.2 36.0 25.1 70 4.3 NW 9 13 5 7 1008.1 1008.0 0.0
19/05:00pm 31.4 35.8 25.7 71 4.1 NW 13 17 7 9 1007.9 1007.8 0.0
19/04:30pm 31.7 35.9 25.3 69 4.5 NNW 13 20 7 11 1007.9 1007.8 0.0
19/04:00pm 32.5 36.1 25.6 67 4.9 NW 17 24 9 13 1008.0 1007.9 0.0
19/03:30pm 33.6 36.4 25.0 60 6.1 NW 19 22 10 12 1008.1 1008.0 0.0
19/03:00pm 33.5 37.0 24.9 60 6.1 NNW 15 22 8 12 1008.4 1008.3 0.0
19/02:30pm 33.1 36.8 24.6 61 6.0 NNW 13 20 7 11 1008.5 1008.4 0.0
19/02:00pm 34.0 37.0 24.0 56 7.0 NNW 15 20 8 11 1008.8 1008.7 0.0
19/01:30pm 34.8 38.6 25.3 57 6.8 NNW 15 24 8 13 1008.9 1008.8 0.0
19/01:00pm 35.0 38.2 24.9 55 7.2 NNW 17 30 9 16 1008.8 1008.7 0.0
19/12:30pm 36.9 38.5 22.2 42 10.1 E 17 28 9 15 1009.2 1009.1 0.0
19/12:00pm 35.5 38.6 22.1 45 9.2 ESE 9 19 5 10 1009.6 1009.5 0.0

Other Formats:

Comma delimited format used in spreadsheet applications
http://www.bom.gov.au/fwo/IDW60801/IDW60801.94306.axf

JavaScript Object Notation format (JSON) in row-major order
http://www.bom.gov.au/fwo/IDW60801/IDW60801.94306.json